sensor_id;sensor_type;location;lat;lon;timestamp;temperature;humidity
7598;DHT22;3840;59.32098800;18.06423600;2022-07-29T00:02:18;12.70;99.90
7598;DHT22;3840;59.32098800;18.06423600;2022-07-29T00:04:43;12.70;99.90
7598;DHT22;3840;59.32098800;18.06423600;2022-07-29T00:07:09;12.70;99.90
7598;DHT22;3840;59.32098800;18.06423600;2022-07-29T00:09:35;12.70;99.90
7598;DHT22;3840;59.32098800;18.06423600;2022-07-29T00:12:01;12.70;99.90
7598;DHT22;3840;59.32098800;18.06423600;2022-07-29T00:14:28;12.70;99.90
7598;DHT22;3840;59.32098800;18.06423600;2022-07-29T00:16:54;12.60;99.90
7598;DHT22;3840;59.32098800;18.06423600;2022-07-29T00:19:19;12.70;99.90
7598;DHT22;3840;59.32098800;18.06423600;2022-07-29T00:21:45;12.70;99.90
7598;DHT22;3840;59.32098800;18.06423600;2022-07-29T00:24:11;12.60;99.90
7598;DHT22;3840;59.32098800;18.06423600;2022-07-29T00:26:37;12.60;99.90
7598;DHT22;3840;59.32098800;18.06423600;2022-07-29T00:29:03;12.60;99.90
7598;DHT22;3840;59.32098800;18.06423600;2022-07-29T00:31:29;12.60;99.90
7598;DHT22;3840;59.32098800;18.06423600;2022-07-29T00:33:55;12.50;99.90
7598;DHT22;3840;59.32098800;18.06423600;2022-07-29T00:36:21;12.60;99.90
7598;DHT22;3840;59.32098800;18.06423600;2022-07-29T00:38:48;12.60;99.90
7598;DHT22;3840;59.32098800;18.06423600;2022-07-29T00:41:14;12.60;99.90
7598;DHT22;3840;59.32098800;18.06423600;2022-07-29T00:43:40;12.70;99.90
7598;DHT22;3840;59.32098800;18.06423600;2022-07-29T00:46:06;12.60;99.90
7598;DHT22;3840;59.32098800;18.06423600;2022-07-29T00:48:32;12.60;99.90
7598;DHT22;3840;59.32098800;18.06423600;2022-07-29T00:50:58;12.60;99.90
7598;DHT22;3840;59.32098800;18.06423600;2022-07-29T00:53:25;12.60;99.90
7598;DHT22;3840;59.32098800;18.06423600;2022-07-29T00:55:50;12.60;99.90
7598;DHT22;3840;59.32098800;18.06423600;2022-07-29T00:58:16;12.60;99.90
7598;DHT22;3840;59.32098800;18.06423600;2022-07-29T01:00:42;12.70;99.90
7598;DHT22;3840;59.32098800;18.06423600;2022-07-29T01:03:08;12.70;99.90
7598;DHT22;3840;59.32098800;18.06423600;2022-07-29T01:05:35;12.80;99.90
7598;DHT22;3840;59.32098800;18.06423600;2022-07-29T01:08:01;12.90;99.90
7598;DHT22;3840;59.32098800;18.06423600;2022-07-29T01:10:28;12.90;99.90
7598;DHT22;3840;59.32098800;18.06423600;2022-07-29T01:12:57;12.80;99.90
7598;DHT22;3840;59.32098800;18.06423600;2022-07-29T01:15:24;12.80;99.90
7598;DHT22;3840;59.32098800;18.06423600;2022-07-29T01:20:26;12.70;99.90
7598;DHT22;3840;59.32098800;18.06423600;2022-07-29T01:23:24;12.80;99.90
7598;DHT22;3840;59.32098800;18.06423600;2022-07-29T01:29:11;12.70;99.90
7598;DHT22;3840;59.32098800;18.06423600;2022-07-29T01:32:10;12.70;99.90
7598;DHT22;3840;59.32098800;18.06423600;2022-07-29T01:34:57;12.60;99.90
7598;DHT22;3840;59.32098800;18.06423600;2022-07-29T01:37:30;12.60;99.90
7598;DHT22;3840;59.32098800;18.06423600;2022-07-29T01:39:59;12.60;99.90
7598;DHT22;3840;59.32098800;18.06423600;2022-07-29T01:42:41;12.60;99.90
7598;DHT22;3840;59.32098800;18.06423600;2022-07-29T01:45:34;12.60;99.90
7598;DHT22;3840;59.32098800;18.06423600;2022-07-29T01:48:06;12.70;99.90
7598;DHT22;3840;59.32098800;18.06423600;2022-07-29T01:50:50;12.70;99.90
7598;DHT22;3840;59.32098800;18.06423600;2022-07-29T01:53:42;12.60;99.90
7598;DHT22;3840;59.32098800;18.06423600;2022-07-29T01:56:10;12.60;99.90
7598;DHT22;3840;59.32098800;18.06423600;2022-07-29T01:58:40;12.60;99.90
7598;DHT22;3840;59.32098800;18.06423600;2022-07-29T02:01:08;12.60;99.90
7598;DHT22;3840;59.32098800;18.06423600;2022-07-29T02:03:36;12.60;99.90
7598;DHT22;3840;59.32098800;18.06423600;2022-07-29T02:06:04;12.60;99.90
7598;DHT22;3840;59.32098800;18.06423600;2022-07-29T02:08:32;12.60;99.90
7598;DHT22;3840;59.32098800;18.06423600;2022-07-29T02:11:00;12.60;99.90
7598;DHT22;3840;59.32098800;18.06423600;2022-07-29T02:13:28;12.60;99.90
7598;DHT22;3840;59.32098800;18.06423600;2022-07-29T02:15:55;12.60;99.90
7598;DHT22;3840;59.32098800;18.06423600;2022-07-29T02:18:23;12.60;99.90
7598;DHT22;3840;59.32098800;18.06423600;2022-07-29T02:20:53;12.60;99.90
7598;DHT22;3840;59.32098800;18.06423600;2022-07-29T02:23:22;12.60;99.90
7598;DHT22;3840;59.32098800;18.06423600;2022-07-29T02:25:50;12.60;99.90
7598;DHT22;3840;59.32098800;18.06423600;2022-07-29T02:28:17;12.60;99.90
7598;DHT22;3840;59.32098800;18.06423600;2022-07-29T02:30:44;12.60;99.90
7598;DHT22;3840;59.32098800;18.06423600;2022-07-29T02:33:13;12.60;99.90
7598;DHT22;3840;59.32098800;18.06423600;2022-07-29T02:35:41;12.60;99.90
7598;DHT22;3840;59.32098800;18.06423600;2022-07-29T02:38:10;12.70;99.90
7598;DHT22;3840;59.32098800;18.06423600;2022-07-29T02:40:57;12.60;99.90
7598;DHT22;3840;59.32098800;18.06423600;2022-07-29T02:43:25;12.60;99.90
7598;DHT22;3840;59.32098800;18.06423600;2022-07-29T02:45:53;12.70;99.90
7598;DHT22;3840;59.32098800;18.06423600;2022-07-29T02:48:25;12.60;99.90
7598;DHT22;3840;59.32098800;18.06423600;2022-07-29T02:51:01;12.70;99.90
7598;DHT22;3840;59.32098800;18.06423600;2022-07-29T02:53:33;12.80;99.90
7598;DHT22;3840;59.32098800;18.06423600;2022-07-29T02:56:04;13.40;99.90
7598;DHT22;3840;59.32098800;18.06423600;2022-07-29T02:58:34;14.20;99.90
7598;DHT22;3840;59.32098800;18.06423600;2022-07-29T03:01:16;15.10;99.90
7598;DHT22;3840;59.32098800;18.06423600;2022-07-29T03:03:44;15.80;99.90
7598;DHT22;3840;59.32098800;18.06423600;2022-07-29T03:06:13;16.60;99.90
7598;DHT22;3840;59.32098800;18.06423600;2022-07-29T03:08:40;17.30;99.90
7598;DHT22;3840;59.32098800;18.06423600;2022-07-29T03:11:08;17.40;99.90
7598;DHT22;3840;59.32098800;18.06423600;2022-07-29T03:13:35;18.00;99.90
7598;DHT22;3840;59.32098800;18.06423600;2022-07-29T03:16:01;18.30;99.90
7598;DHT22;3840;59.32098800;18.06423600;2022-07-29T03:18:28;18.60;99.90
7598;DHT22;3840;59.32098800;18.06423600;2022-07-29T03:20:54;18.70;99.90
7598;DHT22;3840;59.32098800;18.06423600;2022-07-29T03:23:21;19.20;99.90
7598;DHT22;3840;59.32098800;18.06423600;2022-07-29T03:25:52;19.50;99.90
7598;DHT22;3840;59.32098800;18.06423600;2022-07-29T03:28:18;19.50;99.90
7598;DHT22;3840;59.32098800;18.06423600;2022-07-29T03:30:45;20.20;99.90
7598;DHT22;3840;59.32098800;18.06423600;2022-07-29T03:33:10;19.70;99.90
7598;DHT22;3840;59.32098800;18.06423600;2022-07-29T03:35:36;19.90;99.90
7598;DHT22;3840;59.32098800;18.06423600;2022-07-29T03:38:02;20.30;99.90
7598;DHT22;3840;59.32098800;18.06423600;2022-07-29T03:40:33;20.50;99.90
7598;DHT22;3840;59.32098800;18.06423600;2022-07-29T03:43:02;20.70;99.90
7598;DHT22;3840;59.32098800;18.06423600;2022-07-29T03:45:30;21.10;99.90
7598;DHT22;3840;59.32098800;18.06423600;2022-07-29T03:48:04;21.40;99.90
7598;DHT22;3840;59.32098800;18.06423600;2022-07-29T03:50:32;21.80;99.90
7598;DHT22;3840;59.32098800;18.06423600;2022-07-29T03:52:59;21.80;99.90
7598;DHT22;3840;59.32098800;18.06423600;2022-07-29T03:55:26;21.80;99.90
7598;DHT22;3840;59.32098800;18.06423600;2022-07-29T03:57:53;21.90;99.90
7598;DHT22;3840;59.32098800;18.06423600;2022-07-29T04:00:21;22.50;99.90
7598;DHT22;3840;59.32098800;18.06423600;2022-07-29T04:02:48;22.30;99.90
7598;DHT22;3840;59.32098800;18.06423600;2022-07-29T04:05:14;22.70;99.90
7598;DHT22;3840;59.32098800;18.06423600;2022-07-29T04:07:46;22.80;99.90
7598;DHT22;3840;59.32098800;18.06423600;2022-07-29T04:10:13;23.10;99.90
7598;DHT22;3840;59.32098800;18.06423600;2022-07-29T04:12:41;22.10;99.90
7598;DHT22;3840;59.32098800;18.06423600;2022-07-29T04:15:07;22.30;99.90
7598;DHT22;3840;59.32098800;18.06423600;2022-07-29T04:17:33;23.00;99.90
7598;DHT22;3840;59.32098800;18.06423600;2022-07-29T04:19:58;23.30;99.90
7598;DHT22;3840;59.32098800;18.06423600;2022-07-29T04:22:24;22.80;99.90
7598;DHT22;3840;59.32098800;18.06423600;2022-07-29T04:24:50;23.60;99.90
7598;DHT22;3840;59.32098800;18.06423600;2022-07-29T04:27:15;23.80;99.90
7598;DHT22;3840;59.32098800;18.06423600;2022-07-29T04:29:41;23.70;99.90
7598;DHT22;3840;59.32098800;18.06423600;2022-07-29T04:32:07;24.10;99.90
7598;DHT22;3840;59.32098800;18.06423600;2022-07-29T04:34:32;24.40;99.90
7598;DHT22;3840;59.32098800;18.06423600;2022-07-29T04:36:58;23.70;99.90
7598;DHT22;3840;59.32098800;18.06423600;2022-07-29T04:39:24;24.00;99.90
7598;DHT22;3840;59.32098800;18.06423600;2022-07-29T04:41:50;24.00;99.90
7598;DHT22;3840;59.32098800;18.06423600;2022-07-29T04:44:16;24.80;99.90
7598;DHT22;3840;59.32098800;18.06423600;2022-07-29T04:46:42;25.00;99.90
7598;DHT22;3840;59.32098800;18.06423600;2022-07-29T04:49:07;24.80;99.90
7598;DHT22;3840;59.32098800;18.06423600;2022-07-29T04:51:33;24.80;99.90
7598;DHT22;3840;59.32098800;18.06423600;2022-07-29T04:53:59;25.10;99.90
7598;DHT22;3840;59.32098800;18.06423600;2022-07-29T04:56:25;25.50;99.90
7598;DHT22;3840;59.32098800;18.06423600;2022-07-29T04:58:51;24.50;99.90
7598;DHT22;3840;59.32098800;18.06423600;2022-07-29T05:01:17;22.10;99.90
7598;DHT22;3840;59.32098800;18.06423600;2022-07-29T05:03:42;20.50;99.90
7598;DHT22;3840;59.32098800;18.06423600;2022-07-29T05:06:08;19.60;99.90
7598;DHT22;3840;59.32098800;18.06423600;2022-07-29T05:08:34;18.70;99.90
7598;DHT22;3840;59.32098800;18.06423600;2022-07-29T05:10:59;18.50;99.90
7598;DHT22;3840;59.32098800;18.06423600;2022-07-29T05:13:25;18.20;99.90
7598;DHT22;3840;59.32098800;18.06423600;2022-07-29T05:15:51;18.00;99.90
7598;DHT22;3840;59.32098800;18.06423600;2022-07-29T05:18:16;17.90;99.90
7598;DHT22;3840;59.32098800;18.06423600;2022-07-29T05:20:42;17.90;99.90
7598;DHT22;3840;59.32098800;18.06423600;2022-07-29T05:23:08;17.90;99.90
7598;DHT22;3840;59.32098800;18.06423600;2022-07-29T05:25:34;17.90;99.90
7598;DHT22;3840;59.32098800;18.06423600;2022-07-29T05:28:00;17.90;99.90
7598;DHT22;3840;59.32098800;18.06423600;2022-07-29T05:30:25;17.90;99.90
7598;DHT22;3840;59.32098800;18.06423600;2022-07-29T05:32:51;18.00;99.90
7598;DHT22;3840;59.32098800;18.06423600;2022-07-29T05:35:17;18.00;99.90
7598;DHT22;3840;59.32098800;18.06423600;2022-07-29T05:37:42;18.10;99.90
7598;DHT22;3840;59.32098800;18.06423600;2022-07-29T05:40:09;18.20;99.90
7598;DHT22;3840;59.32098800;18.06423600;2022-07-29T05:42:35;18.20;99.90
7598;DHT22;3840;59.32098800;18.06423600;2022-07-29T05:45:01;18.10;99.90
7598;DHT22;3840;59.32098800;18.06423600;2022-07-29T05:47:27;18.10;99.90
7598;DHT22;3840;59.32098800;18.06423600;2022-07-29T05:49:53;18.00;99.90
7598;DHT22;3840;59.32098800;18.06423600;2022-07-29T05:52:19;18.00;99.90
7598;DHT22;3840;59.32098800;18.06423600;2022-07-29T05:54:45;18.00;99.90
7598;DHT22;3840;59.32098800;18.06423600;2022-07-29T05:57:18;18.10;99.90
7598;DHT22;3840;59.32098800;18.06423600;2022-07-29T05:59:44;18.10;99.90
7598;DHT22;3840;59.32098800;18.06423600;2022-07-29T06:02:10;18.20;99.90
7598;DHT22;3840;59.32098800;18.06423600;2022-07-29T06:04:36;18.20;99.90
7598;DHT22;3840;59.32098800;18.06423600;2022-07-29T06:07:02;18.00;99.90
7598;DHT22;3840;59.32098800;18.06423600;2022-07-29T06:09:28;17.90;99.90
7598;DHT22;3840;59.32098800;18.06423600;2022-07-29T06:11:54;17.90;99.90
7598;DHT22;3840;59.32098800;18.06423600;2022-07-29T06:14:20;18.00;99.90
7598;DHT22;3840;59.32098800;18.06423600;2022-07-29T06:16:45;18.00;99.90
7598;DHT22;3840;59.32098800;18.06423600;2022-07-29T06:19:11;18.00;99.90
7598;DHT22;3840;59.32098800;18.06423600;2022-07-29T06:21:43;18.20;99.90
7598;DHT22;3840;59.32098800;18.06423600;2022-07-29T06:24:10;18.30;99.90
7598;DHT22;3840;59.32098800;18.06423600;2022-07-29T06:26:37;18.40;99.90
7598;DHT22;3840;59.32098800;18.06423600;2022-07-29T06:29:03;18.50;99.90
7598;DHT22;3840;59.32098800;18.06423600;2022-07-29T06:31:29;18.50;99.90
7598;DHT22;3840;59.32098800;18.06423600;2022-07-29T06:33:55;18.50;99.90
7598;DHT22;3840;59.32098800;18.06423600;2022-07-29T06:36:20;18.50;99.90
7598;DHT22;3840;59.32098800;18.06423600;2022-07-29T06:38:46;18.60;99.90
7598;DHT22;3840;59.32098800;18.06423600;2022-07-29T06:41:12;18.70;99.90
7598;DHT22;3840;59.32098800;18.06423600;2022-07-29T06:43:42;18.60;99.90
7598;DHT22;3840;59.32098800;18.06423600;2022-07-29T06:46:14;18.70;99.90
7598;DHT22;3840;59.32098800;18.06423600;2022-07-29T06:48:41;18.70;99.90
7598;DHT22;3840;59.32098800;18.06423600;2022-07-29T06:51:08;18.70;99.90
7598;DHT22;3840;59.32098800;18.06423600;2022-07-29T06:53:35;18.70;99.90
7598;DHT22;3840;59.32098800;18.06423600;2022-07-29T06:56:02;18.70;99.90
7598;DHT22;3840;59.32098800;18.06423600;2022-07-29T06:58:28;18.80;99.90
7598;DHT22;3840;59.32098800;18.06423600;2022-07-29T07:00:56;18.90;99.90
7598;DHT22;3840;59.32098800;18.06423600;2022-07-29T07:03:22;18.80;99.90
7598;DHT22;3840;59.32098800;18.06423600;2022-07-29T07:05:48;18.80;99.90
7598;DHT22;3840;59.32098800;18.06423600;2022-07-29T07:08:14;18.80;99.90
7598;DHT22;3840;59.32098800;18.06423600;2022-07-29T07:10:42;18.80;99.90
7598;DHT22;3840;59.32098800;18.06423600;2022-07-29T07:13:09;18.90;99.90
7598;DHT22;3840;59.32098800;18.06423600;2022-07-29T07:15:35;18.90;99.90
7598;DHT22;3840;59.32098800;18.06423600;2022-07-29T07:18:02;18.80;99.90
7598;DHT22;3840;59.32098800;18.06423600;2022-07-29T07:20:27;18.90;99.90
7598;DHT22;3840;59.32098800;18.06423600;2022-07-29T07:22:53;18.90;99.90
7598;DHT22;3840;59.32098800;18.06423600;2022-07-29T07:25:19;18.90;99.90
7598;DHT22;3840;59.32098800;18.06423600;2022-07-29T07:27:45;18.90;99.90
7598;DHT22;3840;59.32098800;18.06423600;2022-07-29T07:30:11;18.90;99.90
7598;DHT22;3840;59.32098800;18.06423600;2022-07-29T07:32:37;18.90;99.90
7598;DHT22;3840;59.32098800;18.06423600;2022-07-29T07:35:04;19.00;99.90
7598;DHT22;3840;59.32098800;18.06423600;2022-07-29T07:37:31;19.00;99.90
7598;DHT22;3840;59.32098800;18.06423600;2022-07-29T07:39:57;19.10;99.90
7598;DHT22;3840;59.32098800;18.06423600;2022-07-29T07:42:23;19.10;99.90
7598;DHT22;3840;59.32098800;18.06423600;2022-07-29T07:44:49;19.00;99.90
7598;DHT22;3840;59.32098800;18.06423600;2022-07-29T07:47:15;19.10;99.90
7598;DHT22;3840;59.32098800;18.06423600;2022-07-29T07:49:48;19.20;99.90
7598;DHT22;3840;59.32098800;18.06423600;2022-07-29T07:52:15;19.30;99.90
7598;DHT22;3840;59.32098800;18.06423600;2022-07-29T07:54:41;19.50;99.90
7598;DHT22;3840;59.32098800;18.06423600;2022-07-29T07:57:09;19.30;99.90
7598;DHT22;3840;59.32098800;18.06423600;2022-07-29T07:59:34;19.40;99.90
7598;DHT22;3840;59.32098800;18.06423600;2022-07-29T08:02:00;19.50;99.90
7598;DHT22;3840;59.32098800;18.06423600;2022-07-29T08:04:26;19.70;99.90
7598;DHT22;3840;59.32098800;18.06423600;2022-07-29T08:06:53;19.70;99.90
7598;DHT22;3840;59.32098800;18.06423600;2022-07-29T08:09:20;19.70;99.90
7598;DHT22;3840;59.32098800;18.06423600;2022-07-29T08:11:46;19.60;99.90
7598;DHT22;3840;59.32098800;18.06423600;2022-07-29T08:14:12;19.80;99.90
7598;DHT22;3840;59.32098800;18.06423600;2022-07-29T08:16:39;20.00;99.90
7598;DHT22;3840;59.32098800;18.06423600;2022-07-29T08:19:05;20.00;99.90
7598;DHT22;3840;59.32098800;18.06423600;2022-07-29T08:21:31;20.10;99.90
7598;DHT22;3840;59.32098800;18.06423600;2022-07-29T08:23:57;20.00;99.90
7598;DHT22;3840;59.32098800;18.06423600;2022-07-29T08:26:42;20.20;99.90
7598;DHT22;3840;59.32098800;18.06423600;2022-07-29T08:29:08;20.40;99.90
7598;DHT22;3840;59.32098800;18.06423600;2022-07-29T08:31:35;20.50;99.90
7598;DHT22;3840;59.32098800;18.06423600;2022-07-29T08:34:01;20.30;99.90
7598;DHT22;3840;59.32098800;18.06423600;2022-07-29T08:36:27;20.50;99.90
7598;DHT22;3840;59.32098800;18.06423600;2022-07-29T08:38:53;20.50;99.90
7598;DHT22;3840;59.32098800;18.06423600;2022-07-29T08:41:19;20.50;99.90
7598;DHT22;3840;59.32098800;18.06423600;2022-07-29T08:43:46;20.60;99.90
7598;DHT22;3840;59.32098800;18.06423600;2022-07-29T08:46:12;20.90;99.90
7598;DHT22;3840;59.32098800;18.06423600;2022-07-29T08:48:39;21.00;99.90
7598;DHT22;3840;59.32098800;18.06423600;2022-07-29T08:51:07;21.00;99.90
7598;DHT22;3840;59.32098800;18.06423600;2022-07-29T08:53:33;21.00;99.90
7598;DHT22;3840;59.32098800;18.06423600;2022-07-29T08:56:00;20.90;99.90
7598;DHT22;3840;59.32098800;18.06423600;2022-07-29T08:58:31;21.00;99.90
7598;DHT22;3840;59.32098800;18.06423600;2022-07-29T09:00:57;20.60;99.90
7598;DHT22;3840;59.32098800;18.06423600;2022-07-29T09:03:30;20.50;99.90
7598;DHT22;3840;59.32098800;18.06423600;2022-07-29T09:06:00;20.40;99.90
7598;DHT22;3840;59.32098800;18.06423600;2022-07-29T09:08:27;20.50;99.90
7598;DHT22;3840;59.32098800;18.06423600;2022-07-29T09:10:55;20.50;99.90
7598;DHT22;3840;59.32098800;18.06423600;2022-07-29T09:13:22;20.50;99.90
7598;DHT22;3840;59.32098800;18.06423600;2022-07-29T09:15:48;20.80;99.90
7598;DHT22;3840;59.32098800;18.06423600;2022-07-29T09:18:35;20.60;99.90
7598;DHT22;3840;59.32098800;18.06423600;2022-07-29T09:21:02;20.60;99.90
7598;DHT22;3840;59.32098800;18.06423600;2022-07-29T09:24:06;20.60;99.90
7598;DHT22;3840;59.32098800;18.06423600;2022-07-29T09:26:34;20.70;99.90
7598;DHT22;3840;59.32098800;18.06423600;2022-07-29T09:29:10;20.60;99.90
7598;DHT22;3840;59.32098800;18.06423600;2022-07-29T09:31:40;20.40;99.90
7598;DHT22;3840;59.32098800;18.06423600;2022-07-29T09:34:07;20.40;99.90
7598;DHT22;3840;59.32098800;18.06423600;2022-07-29T09:36:47;20.40;99.90
7598;DHT22;3840;59.32098800;18.06423600;2022-07-29T09:39:14;20.60;99.90
7598;DHT22;3840;59.32098800;18.06423600;2022-07-29T09:41:49;20.60;99.90
7598;DHT22;3840;59.32098800;18.06423600;2022-07-29T09:44:18;20.70;99.90
7598;DHT22;3840;59.32098800;18.06423600;2022-07-29T09:47:01;20.80;99.90
7598;DHT22;3840;59.32098800;18.06423600;2022-07-29T09:52:15;20.90;99.90
7598;DHT22;3840;59.32098800;18.06423600;2022-07-29T09:54:41;20.80;99.90
7598;DHT22;3840;59.32098800;18.06423600;2022-07-29T09:57:30;20.70;99.90
7598;DHT22;3840;59.32098800;18.06423600;2022-07-29T10:00:07;20.80;99.90
7598;DHT22;3840;59.32098800;18.06423600;2022-07-29T10:02:36;21.10;99.90
7598;DHT22;3840;59.32098800;18.06423600;2022-07-29T10:05:37;21.00;99.90
7598;DHT22;3840;59.32098800;18.06423600;2022-07-29T10:07:57;20.80;99.90
7598;DHT22;3840;59.32098800;18.06423600;2022-07-29T10:10:34;20.90;99.90
7598;DHT22;3840;59.32098800;18.06423600;2022-07-29T10:13:06;20.90;99.90
7598;DHT22;3840;59.32098800;18.06423600;2022-07-29T10:15:33;21.00;99.90
7598;DHT22;3840;59.32098800;18.06423600;2022-07-29T10:18:03;21.20;99.90
7598;DHT22;3840;59.32098800;18.06423600;2022-07-29T10:20:28;21.00;99.90
7598;DHT22;3840;59.32098800;18.06423600;2022-07-29T10:22:55;20.80;99.90
7598;DHT22;3840;59.32098800;18.06423600;2022-07-29T10:25:22;20.80;99.90
7598;DHT22;3840;59.32098800;18.06423600;2022-07-29T10:27:49;20.80;99.90
7598;DHT22;3840;59.32098800;18.06423600;2022-07-29T10:30:17;20.80;99.90
7598;DHT22;3840;59.32098800;18.06423600;2022-07-29T10:41:55;20.90;99.90
7598;DHT22;3840;59.32098800;18.06423600;2022-07-29T10:44:23;20.90;99.90
7598;DHT22;3840;59.32098800;18.06423600;2022-07-29T10:46:49;20.90;99.90
7598;DHT22;3840;59.32098800;18.06423600;2022-07-29T10:49:23;20.90;99.90
7598;DHT22;3840;59.32098800;18.06423600;2022-07-29T10:51:53;21.20;99.90
7598;DHT22;3840;59.32098800;18.06423600;2022-07-29T10:57:26;21.50;99.90
7598;DHT22;3840;59.32098800;18.06423600;2022-07-29T11:07:38;21.60;99.90
7598;DHT22;3840;59.32098800;18.06423600;2022-07-29T11:15:05;21.90;99.90
7598;DHT22;3840;59.32098800;18.06423600;2022-07-29T11:20:43;21.80;99.90
7598;DHT22;3840;59.32098800;18.06423600;2022-07-29T11:28:57;21.40;99.90
7598;DHT22;3840;59.32098800;18.06423600;2022-07-29T11:31:38;21.20;99.90
7598;DHT22;3840;59.32098800;18.06423600;2022-07-29T11:44:56;21.50;99.90
7598;DHT22;3840;59.32098800;18.06423600;2022-07-29T11:47:23;21.50;99.90
7598;DHT22;3840;59.32098800;18.06423600;2022-07-29T11:49:50;21.60;99.90
7598;DHT22;3840;59.32098800;18.06423600;2022-07-29T11:52:19;21.70;99.90
7598;DHT22;3840;59.32098800;18.06423600;2022-07-29T11:54:47;21.90;99.90
7598;DHT22;3840;59.32098800;18.06423600;2022-07-29T11:57:16;21.80;99.90
7598;DHT22;3840;59.32098800;18.06423600;2022-07-29T11:59:44;21.80;99.90
7598;DHT22;3840;59.32098800;18.06423600;2022-07-29T12:02:10;21.90;99.90
7598;DHT22;3840;59.32098800;18.06423600;2022-07-29T12:04:53;21.90;99.90
7598;DHT22;3840;59.32098800;18.06423600;2022-07-29T12:07:27;21.90;99.90
7598;DHT22;3840;59.32098800;18.06423600;2022-07-29T12:09:53;22.00;99.90
7598;DHT22;3840;59.32098800;18.06423600;2022-07-29T12:12:20;21.90;99.90
7598;DHT22;3840;59.32098800;18.06423600;2022-07-29T12:14:46;21.90;99.90
7598;DHT22;3840;59.32098800;18.06423600;2022-07-29T12:17:32;21.90;99.90
7598;DHT22;3840;59.32098800;18.06423600;2022-07-29T12:20:01;21.80;99.90
7598;DHT22;3840;59.32098800;18.06423600;2022-07-29T12:22:34;21.90;99.90
7598;DHT22;3840;59.32098800;18.06423600;2022-07-29T12:25:05;22.00;99.90
7598;DHT22;3840;59.32098800;18.06423600;2022-07-29T12:27:31;21.80;99.90
7598;DHT22;3840;59.32098800;18.06423600;2022-07-29T12:30:03;21.80;99.90
7598;DHT22;3840;59.32098800;18.06423600;2022-07-29T12:32:37;21.80;99.90
7598;DHT22;3840;59.32098800;18.06423600;2022-07-29T12:35:08;21.80;99.90
7598;DHT22;3840;59.32098800;18.06423600;2022-07-29T12:37:35;21.80;99.90
7598;DHT22;3840;59.32098800;18.06423600;2022-07-29T12:40:03;22.00;99.90
7598;DHT22;3840;59.32098800;18.06423600;2022-07-29T12:42:30;22.00;99.90
7598;DHT22;3840;59.32098800;18.06423600;2022-07-29T12:44:56;22.10;99.90
7598;DHT22;3840;59.32098800;18.06423600;2022-07-29T12:47:22;22.00;99.90
7598;DHT22;3840;59.32098800;18.06423600;2022-07-29T12:49:49;22.00;99.90
7598;DHT22;3840;59.32098800;18.06423600;2022-07-29T12:52:32;22.00;99.90
7598;DHT22;3840;59.32098800;18.06423600;2022-07-29T12:54:58;22.10;99.90
7598;DHT22;3840;59.32098800;18.06423600;2022-07-29T12:57:25;22.20;99.90
7598;DHT22;3840;59.32098800;18.06423600;2022-07-29T13:00:06;22.50;99.90
7598;DHT22;3840;59.32098800;18.06423600;2022-07-29T13:02:37;22.30;99.90
7598;DHT22;3840;59.32098800;18.06423600;2022-07-29T13:05:04;22.30;99.90
7598;DHT22;3840;59.32098800;18.06423600;2022-07-29T13:07:31;22.30;99.90
7598;DHT22;3840;59.32098800;18.06423600;2022-07-29T13:10:12;22.30;99.90
7598;DHT22;3840;59.32098800;18.06423600;2022-07-29T13:12:39;22.20;99.90
7598;DHT22;3840;59.32098800;18.06423600;2022-07-29T13:15:16;22.10;99.90
7598;DHT22;3840;59.32098800;18.06423600;2022-07-29T13:17:43;22.10;99.90
7598;DHT22;3840;59.32098800;18.06423600;2022-07-29T13:20:12;22.00;99.90
7598;DHT22;3840;59.32098800;18.06423600;2022-07-29T13:22:40;22.00;99.90
7598;DHT22;3840;59.32098800;18.06423600;2022-07-29T13:25:06;22.00;99.90
7598;DHT22;3840;59.32098800;18.06423600;2022-07-29T13:27:34;21.90;99.90
7598;DHT22;3840;59.32098800;18.06423600;2022-07-29T13:30:03;21.80;99.90
7598;DHT22;3840;59.32098800;18.06423600;2022-07-29T13:32:30;21.80;99.90
7598;DHT22;3840;59.32098800;18.06423600;2022-07-29T13:34:58;21.80;99.90
7598;DHT22;3840;59.32098800;18.06423600;2022-07-29T13:37:25;21.90;99.90
7598;DHT22;3840;59.32098800;18.06423600;2022-07-29T13:39:51;21.90;99.90
7598;DHT22;3840;59.32098800;18.06423600;2022-07-29T13:42:18;21.80;99.90
7598;DHT22;3840;59.32098800;18.06423600;2022-07-29T13:44:44;21.90;99.90
7598;DHT22;3840;59.32098800;18.06423600;2022-07-29T13:47:10;22.00;99.90
7598;DHT22;3840;59.32098800;18.06423600;2022-07-29T13:49:36;22.10;99.90
7598;DHT22;3840;59.32098800;18.06423600;2022-07-29T13:52:02;22.10;99.90
7598;DHT22;3840;59.32098800;18.06423600;2022-07-29T13:54:28;22.10;99.90
7598;DHT22;3840;59.32098800;18.06423600;2022-07-29T13:56:54;22.20;99.90
7598;DHT22;3840;59.32098800;18.06423600;2022-07-29T13:59:20;22.10;99.90
7598;DHT22;3840;59.32098800;18.06423600;2022-07-29T14:01:45;22.10;99.90
7598;DHT22;3840;59.32098800;18.06423600;2022-07-29T14:04:11;22.10;99.90
7598;DHT22;3840;59.32098800;18.06423600;2022-07-29T14:06:37;22.10;99.90
7598;DHT22;3840;59.32098800;18.06423600;2022-07-29T14:09:04;22.30;99.90
7598;DHT22;3840;59.32098800;18.06423600;2022-07-29T14:11:34;22.30;99.90
7598;DHT22;3840;59.32098800;18.06423600;2022-07-29T14:14:01;22.20;99.90
7598;DHT22;3840;59.32098800;18.06423600;2022-07-29T14:16:27;22.20;99.90
7598;DHT22;3840;59.32098800;18.06423600;2022-07-29T14:18:52;22.10;99.90
7598;DHT22;3840;59.32098800;18.06423600;2022-07-29T14:21:19;22.00;99.90
7598;DHT22;3840;59.32098800;18.06423600;2022-07-29T14:23:45;22.10;99.90
7598;DHT22;3840;59.32098800;18.06423600;2022-07-29T14:26:10;22.20;99.90
7598;DHT22;3840;59.32098800;18.06423600;2022-07-29T14:28:36;22.40;99.90
7598;DHT22;3840;59.32098800;18.06423600;2022-07-29T14:31:02;22.60;99.90
7598;DHT22;3840;59.32098800;18.06423600;2022-07-29T14:33:28;22.80;99.90
7598;DHT22;3840;59.32098800;18.06423600;2022-07-29T14:35:53;22.60;99.90